createdAt,value
2023-06-11T00:00:47.811Z,17.84
2023-06-11T00:03:22.846Z,17.81
2023-06-11T00:05:54.126Z,17.73
2023-06-11T00:08:28.155Z,17.74
2023-06-11T00:10:58.943Z,17.72
2023-06-11T00:13:31.409Z,17.69
2023-06-11T00:16:01.970Z,17.68
2023-06-11T00:18:32.839Z,17.66
2023-06-11T00:21:04.506Z,17.67
2023-06-11T00:23:39.306Z,17.59
2023-06-11T00:26:11.176Z,17.59
2023-06-11T00:28:44.569Z,17.61
2023-06-11T00:31:15.238Z,17.57
2023-06-11T00:33:46.471Z,17.54
2023-06-11T00:36:17.001Z,17.54
2023-06-11T00:38:50.401Z,17.47
2023-06-11T00:41:21.943Z,17.53
2023-06-11T00:43:54.092Z,17.48
2023-06-11T00:46:26.124Z,17.51
2023-06-11T00:48:57.670Z,17.50
2023-06-11T00:51:29.576Z,17.54
2023-06-11T00:54:02.899Z,17.51
2023-06-11T00:56:35.601Z,17.47
2023-06-11T00:59:07.974Z,17.50
2023-06-11T01:01:45.990Z,17.48
2023-06-11T01:04:24.946Z,17.42
2023-06-11T01:07:02.056Z,17.41
2023-06-11T01:09:39.626Z,17.37
2023-06-11T01:12:12.309Z,17.41
2023-06-11T01:14:44.146Z,17.40
2023-06-11T01:17:19.676Z,17.35
2023-06-11T01:20:14.229Z,17.34
2023-06-11T01:23:02.932Z,17.37
2023-06-11T01:25:46.554Z,17.31
2023-06-11T01:28:28.764Z,17.32
2023-06-11T01:31:02.726Z,17.33
2023-06-11T01:33:37.365Z,17.32
2023-06-11T01:36:12.570Z,17.26
2023-06-11T01:38:46.537Z,17.23
2023-06-11T01:41:37.042Z,17.25
2023-06-11T01:44:12.374Z,17.19
2023-06-11T01:46:43.332Z,17.21
2023-06-11T01:49:13.920Z,17.16
2023-06-11T01:51:44.802Z,17.21
2023-06-11T01:54:16.186Z,17.16
2023-06-11T01:56:47.036Z,17.17
2023-06-11T01:59:22.981Z,17.12
2023-06-11T02:02:03.415Z,17.05
2023-06-11T02:04:34.626Z,17.04
2023-06-11T02:07:05.489Z,17.03
2023-06-11T02:09:37.170Z,16.97
2023-06-11T02:12:08.918Z,16.98
2023-06-11T02:14:42.585Z,16.94
2023-06-11T02:17:13.768Z,16.92
2023-06-11T02:19:47.800Z,16.88
2023-06-11T02:22:19.297Z,16.80
2023-06-11T02:24:49.849Z,16.86
2023-06-11T02:27:21.251Z,16.88
2023-06-11T02:29:56.983Z,16.80
2023-06-11T02:32:27.986Z,16.78
2023-06-11T02:35:02.395Z,16.74
2023-06-11T02:37:32.966Z,16.74
2023-06-11T02:40:03.717Z,16.75
2023-06-11T02:42:36.788Z,16.80
2023-06-11T02:45:12.443Z,16.77
2023-06-11T02:47:45.502Z,16.78
2023-06-11T02:50:16.712Z,16.83
2023-06-11T02:52:47.879Z,16.82
2023-06-11T02:55:19.207Z,16.78
2023-06-11T02:57:50.370Z,16.81
2023-06-11T03:00:24.510Z,16.82
2023-06-11T03:02:55.609Z,16.84
2023-06-11T03:05:34.063Z,16.87
2023-06-11T03:08:06.398Z,16.82
2023-06-11T03:10:37.842Z,16.86
2023-06-11T03:13:09.400Z,16.86
2023-06-11T03:15:45.470Z,16.87
2023-06-11T03:18:16.749Z,16.93
2023-06-11T03:20:48.450Z,16.92
2023-06-11T03:23:20.249Z,16.90
2023-06-11T03:25:51.793Z,16.93
2023-06-11T03:28:25.024Z,16.96
2023-06-11T03:30:59.875Z,17.03
2023-06-11T03:33:31.611Z,17.03
2023-06-11T03:36:03.441Z,17.08
2023-06-11T03:38:35.249Z,17.12
2023-06-11T03:41:06.613Z,17.10
2023-06-11T03:43:38.581Z,17.15
2023-06-11T03:46:13.562Z,17.15
2023-06-11T03:48:44.566Z,17.14
2023-06-11T03:51:16.020Z,17.22
2023-06-11T03:53:47.453Z,17.19
2023-06-11T03:56:18.142Z,17.19
2023-06-11T03:58:49.129Z,17.23
2023-06-11T04:01:23.087Z,17.26
2023-06-11T04:03:53.915Z,17.26
2023-06-11T04:06:26.925Z,17.32
2023-06-11T04:08:58.187Z,17.37
2023-06-11T04:11:29.398Z,17.36
2023-06-11T04:14:00.459Z,17.42
2023-06-11T04:16:34.295Z,17.43
2023-06-11T04:19:05.623Z,17.47
2023-06-11T04:21:36.455Z,17.48
2023-06-11T04:24:09.531Z,17.50
2023-06-11T04:26:42.756Z,17.54
2023-06-11T04:29:14.876Z,17.53
2023-06-11T04:31:48.920Z,17.57
2023-06-11T04:34:35.539Z,17.57
2023-06-11T04:37:11.202Z,17.61
2023-06-11T04:39:45.202Z,17.65
2023-06-11T04:42:17.651Z,17.66
2023-06-11T04:44:49.856Z,17.75
2023-06-11T04:47:26.379Z,17.69
2023-06-11T04:49:58.508Z,17.72
2023-06-11T04:52:29.945Z,17.79
2023-06-11T04:55:01.948Z,17.85
2023-06-11T04:57:34.867Z,17.82
2023-06-11T05:00:09.385Z,17.86
2023-06-11T05:02:47.893Z,17.95
2023-06-11T05:05:19.635Z,18.09
2023-06-11T05:07:50.867Z,18.33
2023-06-11T05:10:21.818Z,18.47
2023-06-11T05:12:53.258Z,18.56
2023-06-11T05:15:26.742Z,18.70
2023-06-11T05:18:00.507Z,18.64
2023-06-11T05:20:32.986Z,18.53
2023-06-11T05:23:05.030Z,18.67
2023-06-11T05:25:48.003Z,18.63
2023-06-11T05:28:21.740Z,18.74
2023-06-11T05:30:54.282Z,18.74
2023-06-11T05:33:30.046Z,18.77
2023-06-11T05:36:00.882Z,18.76
2023-06-11T05:38:31.625Z,18.89
2023-06-11T05:41:04.193Z,18.86
2023-06-11T05:43:35.275Z,18.89
2023-06-11T05:46:07.763Z,19.08
2023-06-11T05:48:42.563Z,19.02
2023-06-11T05:51:13.548Z,19.04
2023-06-11T05:53:44.385Z,19.11
2023-06-11T05:56:15.027Z,19.20
2023-06-11T05:58:45.609Z,19.15
2023-06-11T06:01:18.824Z,19.35
2023-06-11T06:03:53.423Z,19.51
2023-06-11T06:06:24.474Z,19.45
2023-06-11T06:08:55.540Z,19.37
2023-06-11T06:11:27.538Z,19.56
2023-06-11T06:13:59.297Z,19.50
2023-06-11T06:16:31.754Z,19.51
2023-06-11T06:19:08.237Z,19.69
2023-06-11T06:21:38.898Z,19.71
2023-06-11T06:24:10.730Z,19.74
2023-06-11T06:26:45.410Z,19.94
2023-06-11T06:29:16.809Z,19.85
2023-06-11T06:31:48.956Z,19.77
2023-06-11T06:34:22.810Z,19.82
2023-06-11T06:36:54.099Z,19.95
2023-06-11T06:39:24.929Z,20.17
2023-06-11T06:41:56.554Z,20.30
2023-06-11T06:44:39.596Z,20.03
2023-06-11T06:47:11.323Z,19.75
2023-06-11T06:49:45.676Z,19.81
2023-06-11T06:52:16.449Z,19.93
2023-06-11T06:54:47.089Z,20.10
2023-06-11T06:57:17.765Z,19.91
2023-06-11T06:59:49.401Z,20.04
2023-06-11T07:02:20.588Z,20.17
2023-06-11T07:04:56.541Z,20.06
2023-06-11T07:07:28.308Z,20.02
2023-06-11T07:09:59.235Z,20.16
2023-06-11T07:12:29.937Z,20.17
2023-06-11T07:15:01.297Z,20.24
2023-06-11T07:17:33.389Z,20.59
2023-06-11T07:20:09.556Z,20.83
2023-06-11T07:22:41.295Z,21.00
2023-06-11T07:25:13.659Z,21.41
2023-06-11T07:27:44.564Z,21.61
2023-06-11T07:30:17.032Z,22.08
2023-06-11T07:32:49.527Z,21.79
2023-06-11T07:35:23.203Z,22.12
2023-06-11T07:37:54.405Z,21.97
2023-06-11T07:40:25.540Z,21.88
2023-06-11T07:42:56.675Z,21.68
2023-06-11T07:45:28.731Z,21.41
2023-06-11T07:47:59.441Z,21.66
2023-06-11T07:50:33.426Z,22.01
2023-06-11T07:53:04.799Z,22.19
2023-06-11T07:55:37.470Z,22.29
2023-06-11T07:58:08.148Z,22.46
2023-06-11T08:00:39.763Z,22.58
2023-06-11T08:03:10.517Z,22.78
2023-06-11T08:05:44.350Z,23.05
2023-06-11T08:08:15.025Z,23.26
2023-06-11T08:10:47.368Z,23.39
2023-06-11T08:13:18.536Z,22.85
2023-06-11T08:15:50.466Z,23.26
2023-06-11T08:18:21.473Z,23.04
2023-06-11T08:20:55.224Z,23.69
2023-06-11T08:23:26.690Z,23.62
2023-06-11T08:26:00.444Z,23.19
2023-06-11T08:28:31.598Z,23.78
2023-06-11T08:31:02.884Z,23.63
2023-06-11T08:33:34.805Z,24.00
2023-06-11T08:36:08.524Z,23.81
2023-06-11T08:38:39.472Z,23.66
2023-06-11T08:41:10.659Z,23.97
2023-06-11T08:43:41.722Z,23.49
2023-06-11T08:46:17.062Z,23.33
2023-06-11T08:48:50.171Z,23.87
2023-06-11T08:51:24.077Z,23.71
2023-06-11T08:53:55.264Z,23.87
2023-06-11T08:56:27.226Z,23.38
2023-06-11T08:59:01.015Z,23.66
2023-06-11T09:01:33.608Z,23.33
2023-06-11T09:04:05.143Z,23.65
2023-06-11T09:06:43.183Z,23.77
2023-06-11T09:09:16.349Z,24.11
2023-06-11T09:11:49.441Z,23.87
2023-06-11T09:14:21.547Z,23.86
2023-06-11T09:16:53.509Z,24.36
2023-06-11T09:19:27.282Z,24.45
2023-06-11T09:22:01.826Z,24.11
2023-06-11T09:24:33.420Z,24.27
2023-06-11T09:27:04.429Z,24.32
2023-06-11T09:29:36.238Z,24.26
2023-06-11T09:32:23.377Z,24.48
2023-06-11T09:35:02.295Z,24.33
2023-06-11T09:37:43.078Z,24.63
2023-06-11T09:40:16.394Z,24.22
2023-06-11T09:42:48.853Z,24.63
2023-06-11T09:45:21.219Z,24.15
2023-06-11T09:47:53.902Z,23.99
2023-06-11T09:50:25.917Z,24.29
2023-06-11T09:53:04.723Z,24.50
2023-06-11T09:55:36.856Z,24.44
2023-06-11T09:58:08.602Z,24.85
2023-06-11T10:00:40.370Z,25.01
2023-06-11T10:03:11.101Z,24.66
2023-06-11T10:05:43.010Z,24.39
2023-06-11T10:08:22.143Z,24.68
2023-06-11T10:10:59.372Z,24.39
2023-06-11T10:13:35.287Z,23.84
2023-06-11T10:16:07.812Z,24.15
2023-06-11T10:18:40.271Z,23.86
2023-06-11T10:21:11.943Z,24.17
2023-06-11T10:23:46.583Z,24.54
2023-06-11T10:26:18.198Z,24.39
2023-06-11T10:28:51.490Z,24.46
2023-06-11T10:31:32.894Z,24.51
2023-06-11T10:34:07.998Z,25.39
2023-06-11T10:36:40.663Z,25.67
2023-06-11T10:39:27.115Z,25.40
2023-06-11T10:42:07.461Z,25.08
2023-06-11T10:44:45.711Z,24.83
2023-06-11T10:47:16.883Z,24.96
2023-06-11T10:49:47.701Z,25.28
2023-06-11T10:52:18.734Z,25.14
2023-06-11T10:54:55.820Z,24.80
2023-06-11T10:57:27.536Z,24.49
2023-06-11T10:59:58.364Z,24.38
2023-06-11T11:02:31.441Z,24.15
2023-06-11T11:05:03.112Z,24.36
2023-06-11T11:07:35.891Z,24.93
2023-06-11T11:10:12.557Z,24.95
2023-06-11T11:12:45.833Z,25.26
2023-06-11T11:15:20.331Z,24.73
2023-06-11T11:17:52.727Z,24.14
2023-06-11T11:20:24.072Z,24.49
2023-06-11T11:22:57.692Z,24.45
2023-06-11T11:25:34.183Z,24.32
2023-06-11T11:28:06.733Z,24.27
2023-06-11T11:30:38.440Z,24.12
2023-06-11T11:33:13.269Z,24.92
2023-06-11T11:35:55.368Z,25.06
2023-06-11T11:38:27.709Z,24.49
2023-06-11T11:41:06.110Z,24.31
2023-06-11T11:43:45.075Z,23.90
2023-06-11T11:46:20.622Z,24.04
2023-06-11T11:48:52.575Z,23.91
2023-06-11T11:51:25.591Z,23.70
2023-06-11T11:53:56.981Z,23.86
2023-06-11T11:56:38.081Z,24.57
2023-06-11T11:59:09.122Z,24.57
2023-06-11T12:01:41.361Z,24.82
2023-06-11T12:04:12.452Z,25.47
2023-06-11T12:07:03.793Z,25.57
2023-06-11T12:10:01.080Z,25.23
2023-06-11T12:12:41.962Z,25.70
2023-06-11T12:15:15.599Z,25.62
2023-06-11T12:17:50.805Z,24.42
2023-06-11T12:20:23.770Z,24.64
2023-06-11T12:22:55.468Z,24.76
2023-06-11T12:25:29.734Z,25.10
2023-06-11T12:28:04.244Z,25.21
2023-06-11T12:30:36.481Z,26.02
2023-06-11T12:33:07.519Z,26.16
2023-06-11T12:35:38.297Z,25.97
2023-06-11T12:38:11.870Z,25.93
2023-06-11T12:40:43.673Z,26.26
2023-06-11T12:43:17.299Z,25.69
2023-06-11T12:45:48.483Z,25.80
2023-06-11T12:48:19.704Z,26.12
2023-06-11T12:50:50.532Z,24.69
2023-06-11T12:53:21.230Z,24.39
2023-06-11T12:55:52.429Z,24.08
2023-06-11T12:58:26.115Z,24.10
2023-06-11T13:00:58.220Z,23.96
2023-06-11T13:03:33.019Z,23.95
2023-06-11T13:06:04.536Z,24.00
2023-06-11T13:08:35.269Z,23.75
2023-06-11T13:11:06.387Z,23.86
2023-06-11T13:13:42.278Z,23.78
2023-06-11T13:16:12.739Z,23.64
2023-06-11T13:18:43.682Z,23.60
2023-06-11T13:21:14.417Z,23.51
2023-06-11T13:23:45.576Z,23.38
2023-06-11T13:26:16.575Z,23.27
2023-06-11T13:28:50.263Z,23.17
2023-06-11T13:31:22.401Z,23.39
2023-06-11T13:33:53.201Z,23.79
2023-06-11T13:36:25.532Z,24.30
2023-06-11T13:38:56.241Z,24.25
2023-06-11T13:41:28.033Z,24.40
2023-06-11T13:44:02.188Z,24.52
2023-06-11T13:46:33.398Z,24.48
2023-06-11T13:49:05.053Z,24.84
2023-06-11T13:51:36.780Z,24.18
2023-06-11T13:54:08.221Z,23.63
2023-06-11T13:56:39.091Z,23.22
2023-06-11T13:59:12.436Z,22.94
2023-06-11T14:01:43.778Z,23.13
2023-06-11T14:04:14.341Z,23.19
2023-06-11T14:06:44.911Z,23.65
2023-06-11T14:09:16.400Z,23.44
2023-06-11T14:11:47.624Z,23.36
2023-06-11T14:14:24.279Z,23.09
2023-06-11T14:16:55.536Z,23.37
2023-06-11T14:19:26.233Z,24.07
2023-06-11T14:21:56.968Z,24.10
2023-06-11T14:24:28.344Z,23.92
2023-06-11T14:26:59.943Z,24.17
2023-06-11T14:29:33.924Z,23.98
2023-06-11T14:32:05.731Z,23.77
2023-06-11T14:34:37.688Z,23.77
2023-06-11T14:37:09.449Z,23.77
2023-06-11T14:39:40.321Z,23.82
2023-06-11T14:42:12.462Z,23.89
2023-06-11T14:44:46.007Z,23.62
2023-06-11T14:47:16.980Z,23.63
2023-06-11T14:49:47.792Z,23.65
2023-06-11T14:52:19.516Z,23.35
2023-06-11T14:54:50.448Z,23.22
2023-06-11T14:57:26.262Z,23.20
2023-06-11T15:00:00.351Z,23.32
2023-06-11T15:02:36.231Z,23.42
2023-06-11T15:05:07.850Z,23.25
2023-06-11T15:07:38.541Z,23.36
2023-06-11T15:10:13.811Z,23.24
2023-06-11T15:12:46.007Z,23.35
2023-06-11T15:15:20.562Z,23.21
2023-06-11T15:17:51.562Z,23.16
2023-06-11T15:20:22.643Z,22.92
2023-06-11T15:22:53.592Z,22.83
2023-06-11T15:25:24.213Z,22.85
2023-06-11T15:27:55.524Z,22.70
2023-06-11T15:30:30.667Z,22.65
2023-06-11T15:33:01.687Z,22.65
2023-06-11T15:35:33.299Z,22.59
2023-06-11T15:38:03.752Z,22.51
2023-06-11T15:40:34.741Z,22.41
2023-06-11T15:43:05.655Z,22.45
2023-06-11T15:45:43.477Z,22.41
2023-06-11T15:48:14.148Z,22.49
2023-06-11T15:50:46.008Z,22.36
2023-06-11T15:53:17.185Z,22.37
2023-06-11T15:55:48.436Z,22.41
2023-06-11T15:58:19.375Z,22.40
2023-06-11T16:00:53.925Z,22.52
2023-06-11T16:03:25.064Z,22.39
2023-06-11T16:05:55.635Z,22.23
2023-06-11T16:08:26.807Z,22.18
2023-06-11T16:10:58.421Z,22.10
2023-06-11T16:13:29.996Z,22.05
2023-06-11T16:16:03.462Z,21.97
2023-06-11T16:18:34.081Z,21.96
2023-06-11T16:21:05.322Z,21.96
2023-06-11T16:23:38.373Z,22.00
2023-06-11T16:26:09.072Z,21.96
2023-06-11T16:28:40.648Z,22.02
2023-06-11T16:31:14.810Z,21.97
2023-06-11T16:33:57.185Z,21.86
2023-06-11T16:36:31.215Z,21.87
2023-06-11T16:39:21.726Z,21.91
2023-06-11T16:41:55.840Z,21.89
2023-06-11T16:44:27.238Z,21.87
2023-06-11T16:47:01.012Z,21.84
2023-06-11T16:49:31.739Z,21.85
2023-06-11T16:52:04.922Z,21.77
2023-06-11T16:54:35.639Z,21.86
2023-06-11T16:57:06.918Z,21.76
2023-06-11T16:59:38.313Z,21.66
2023-06-11T17:02:14.738Z,21.66
2023-06-11T17:04:45.397Z,21.59
2023-06-11T17:07:16.281Z,21.56
2023-06-11T17:09:47.447Z,21.49
2023-06-11T17:12:18.453Z,21.55
2023-06-11T17:14:49.831Z,21.47
2023-06-11T17:17:25.082Z,21.45
2023-06-11T17:19:56.253Z,21.40
2023-06-11T17:22:30.779Z,21.34
2023-06-11T17:25:01.553Z,21.29
2023-06-11T17:27:33.589Z,21.23
2023-06-11T17:30:04.426Z,21.26
2023-06-11T17:32:38.587Z,21.22
2023-06-11T17:35:11.217Z,21.20
2023-06-11T17:37:42.750Z,21.19
2023-06-11T17:40:16.903Z,21.11
2023-06-11T17:42:48.247Z,21.06
2023-06-11T17:45:35.986Z,21.07
2023-06-11T17:48:10.349Z,21.17
2023-06-11T17:50:42.164Z,21.01
2023-06-11T17:53:13.170Z,21.06
2023-06-11T17:55:44.210Z,20.99
2023-06-11T17:58:17.076Z,20.90
2023-06-11T18:00:48.694Z,20.87
2023-06-11T18:03:22.335Z,20.72
2023-06-11T18:05:53.166Z,20.81
2023-06-11T18:08:24.073Z,20.76
2023-06-11T18:10:55.238Z,20.72
2023-06-11T18:13:25.794Z,20.65
2023-06-11T18:15:57.389Z,20.62
2023-06-11T18:18:32.732Z,20.62
2023-06-11T18:21:03.872Z,20.60
2023-06-11T18:23:34.441Z,20.54
2023-06-11T18:26:05.568Z,20.48
2023-06-11T18:28:36.495Z,20.37
2023-06-11T18:31:08.311Z,20.33
2023-06-11T18:33:46.459Z,20.32
2023-06-11T18:36:21.867Z,20.22
2023-06-11T18:39:07.412Z,20.18
2023-06-11T18:41:45.704Z,20.12
2023-06-11T18:44:22.274Z,20.07
2023-06-11T18:47:02.407Z,20.08
2023-06-11T18:49:40.402Z,20.06
2023-06-11T18:52:17.510Z,19.97
2023-06-11T18:54:53.350Z,19.90
2023-06-11T18:57:26.593Z,19.88
2023-06-11T18:59:58.931Z,19.88
2023-06-11T19:02:32.805Z,19.80
2023-06-11T19:05:18.369Z,19.74
2023-06-11T19:07:58.999Z,19.73
2023-06-11T19:10:41.945Z,19.59
2023-06-11T19:13:22.222Z,19.59
2023-06-11T19:15:56.242Z,19.54
2023-06-11T19:18:46.721Z,19.55
2023-06-11T19:21:25.335Z,19.47
2023-06-11T19:24:05.750Z,19.41
2023-06-11T19:26:36.738Z,19.40
2023-06-11T19:29:06.992Z,19.28
2023-06-11T19:31:48.545Z,19.18
2023-06-11T19:34:38.049Z,19.10
2023-06-11T19:37:31.361Z,19.01
2023-06-11T19:40:04.446Z,18.96
2023-06-11T19:42:34.651Z,18.84
2023-06-11T19:45:10.962Z,18.86
2023-06-11T19:47:42.302Z,18.80
2023-06-11T19:50:15.102Z,18.70
2023-06-11T19:52:48.286Z,18.64
2023-06-11T19:55:20.781Z,18.55
2023-06-11T19:57:53.702Z,18.49
2023-06-11T20:00:24.023Z,18.42
2023-06-11T20:02:59.826Z,18.36
2023-06-11T20:05:31.043Z,18.34
2023-06-11T20:08:04.709Z,18.28
2023-06-11T20:10:43.172Z,18.23
2023-06-11T20:13:13.409Z,18.18
2023-06-11T20:15:43.869Z,18.17
2023-06-11T20:18:14.041Z,18.14
2023-06-11T20:20:53.224Z,18.07
2023-06-11T20:23:26.252Z,18.07
2023-06-11T20:25:59.578Z,18.02
2023-06-11T20:28:30.975Z,17.96
2023-06-11T20:31:04.759Z,17.91
2023-06-11T20:33:36.700Z,17.84
2023-06-11T20:36:07.538Z,17.77
2023-06-11T20:38:46.618Z,17.67
2023-06-11T20:41:46.034Z,17.64
2023-06-11T20:44:20.932Z,17.58
2023-06-11T20:46:51.469Z,17.57
2023-06-11T20:49:21.679Z,17.44
2023-06-11T20:51:52.419Z,17.50
2023-06-11T20:54:29.275Z,17.40
2023-06-11T20:57:08.637Z,17.37
2023-06-11T20:59:42.556Z,17.39
2023-06-11T21:02:15.414Z,17.27
2023-06-11T21:04:48.357Z,17.26
2023-06-11T21:07:18.664Z,17.19
2023-06-11T21:09:53.125Z,17.14
2023-06-11T21:12:24.226Z,17.10
2023-06-11T21:14:55.503Z,17.02
2023-06-11T21:17:35.201Z,16.93
2023-06-11T21:20:07.499Z,16.85
2023-06-11T21:22:38.190Z,16.79
2023-06-11T21:25:15.914Z,16.78
2023-06-11T21:27:47.410Z,16.75
2023-06-11T21:30:24.306Z,16.65
2023-06-11T21:32:55.268Z,16.55
2023-06-11T21:35:26.283Z,16.54
2023-06-11T21:37:57.201Z,16.50
2023-06-11T21:40:43.322Z,16.53
2023-06-11T21:43:17.777Z,16.47
2023-06-11T21:45:49.415Z,16.43
2023-06-11T21:48:19.719Z,16.45
2023-06-11T21:50:51.198Z,16.34
2023-06-11T21:53:22.357Z,16.31
2023-06-11T21:55:56.842Z,16.29
2023-06-11T21:58:28.402Z,16.21
2023-06-11T22:00:59.099Z,16.18
2023-06-11T22:03:30.350Z,16.18
2023-06-11T22:06:04.342Z,16.08
2023-06-11T22:08:36.096Z,16.08
2023-06-11T22:11:08.826Z,16.01
2023-06-11T22:13:39.144Z,15.98
2023-06-11T22:16:14.383Z,15.92
2023-06-11T22:18:45.481Z,15.94
2023-06-11T22:21:26.317Z,15.93
2023-06-11T22:23:57.334Z,15.94
2023-06-11T22:26:30.081Z,15.84
2023-06-11T22:29:00.291Z,15.84
2023-06-11T22:31:32.889Z,15.77
2023-06-11T22:34:05.457Z,15.77
2023-06-11T22:36:37.912Z,15.67
2023-06-11T22:39:10.116Z,15.65
2023-06-11T22:41:45.127Z,15.70
2023-06-11T22:44:15.382Z,15.68
2023-06-11T22:46:45.596Z,15.55
2023-06-11T22:49:18.974Z,15.56
2023-06-11T22:51:51.860Z,15.46
2023-06-11T22:54:22.092Z,15.48
2023-06-11T22:56:54.948Z,15.47
2023-06-11T22:59:25.188Z,15.40
2023-06-11T23:01:57.698Z,15.41
2023-06-11T23:04:30.397Z,15.32
2023-06-11T23:07:00.663Z,15.34
2023-06-11T23:09:30.902Z,15.27
2023-06-11T23:12:06.919Z,15.25
2023-06-11T23:14:37.146Z,15.22
2023-06-11T23:17:14.818Z,15.14
2023-06-11T23:19:47.363Z,15.11
2023-06-11T23:22:20.666Z,15.09
2023-06-11T23:24:51.072Z,15.05
2023-06-11T23:27:27.945Z,15.05
2023-06-11T23:29:58.132Z,15.01
2023-06-11T23:32:31.412Z,14.97
2023-06-11T23:35:07.341Z,14.91
2023-06-11T23:37:54.199Z,14.92
2023-06-11T23:40:24.425Z,14.84
2023-06-11T23:42:57.270Z,14.90
2023-06-11T23:45:27.549Z,14.90
2023-06-11T23:47:57.845Z,14.82
2023-06-11T23:50:28.102Z,14.80
2023-06-11T23:52:58.315Z,14.73
2023-06-11T23:55:28.596Z,14.74
2023-06-11T23:58:20.892Z,14.69
